Aérodrome :
LOGIN :

S'inscrire | Disclaimer

   EN    FR    IT 

 










Légende :    VFR   VFR Marginal   IFR   IFR Intensif   IFR Très Intensif
Visi : 
Plafond : 
>= 8 km
>= 3000ft
5 à 8 km
1000 à 3000 ft
1500m à 5 km
500 à 1000 ft
800 à 1500m
200 à 500 ft
< 800m
< 200 ft
Symboles :   Orages  Brouillard  Fortes neiges  Fortes précipitations  Vent > 20 kt
SIGMETs :   Divers  Orages  Givrage  Turbulence  Onde Orograph.  Cendres Volcan.







- Altitude de l'aérodrome : 55 ft
- Code IATA : DSA
- Voir les cartes d'approche


EGCN - Robin Hood Doncaster Sheffield

DERNIER METAR :
  • 210350Z 28019KT 9999 BKN022 BKN027 09/05 Q0995

METARs EXPIRÉS :
  • 210320Z 27029G41KT 9999 BKN022 BKN027 10/06 Q0994
  • 210250Z 26025G35KT 9999 FEW023 11/06 Q0992
  • 210220Z AUTO 25026G39KT 9999 BKN021/// 11/07 Q0992
  • 210150Z 25024KT 9999 FEW019 SCT026 BKN049 13/10 Q0990 RERA
  • 210120Z 21027G37KT 9999 FEW026 16/13 Q0989

TAF AMD TAF EGCN
Valide du 21 à 01h jusqu'au 22 à 00h UTC


210151Z 2101/2124 23025G35KT 9999 SCT025
BECMG 2101/2103 26020G32KT
TEMPO 2101/2106 6000 RA BKN012
PROB30
TEMPO 2102/2106 27030G42KT
TEMPO 2106/2120 6000 SHRA
PROB30
TEMPO 2112/2117 3000 +SHRA BKN014
BECMG 2115/2118 27012KT
Pas de NOTAMs connus pour ce terrain.
2 SIGMETs publiés pour la FIR London (EGTT) :
 
Onde orographique forte
EGTT SIGMET 02 VALID 210100/210500 EGRR
EGTT LONDON FIR SEV MTW FCST WI N5011 E00014 - N5000 W00115 - N5000 W00148 - N5310 W00216 - N5500 W00005 - N5500 E00319 - N5018 E00031 - N5011 E00014 FL040/240 MOV E 20KT NC=
Turbulence forte
EGTT SIGMET 01 VALID 210100/210500 EGRR
EGTT LONDON FIR SEV TURB FCST SE OF LINE N5500 W00030 - N4922 W00517 SFC/FL060 MOV E 10KT NC=



MET'MAP, la Météo Aéronautique d'un coup d'oeil ! - Copyright ORBIFLY Décembre 2007 - Disclaimer

ORBIFLY MET'MAP TEAM :

Programmation & Développement : Alexandra Zaïnal
Conception & Développement : Baudouin d'Aumeries
Co-Programmation & Développement : Marc-Olivier Méhu
Soutien technique & logistique : Manuel Goepfert

Contact : metmap@orbifly.com




SOURCES & CREDITS :

   NOAA